Česky Dansk Deutsch English Español Suomi Français Magyar Italiano Nederlands norsk Polski Português svenska Türkçe

 

Het Weer

Ascencion De Guarayos (Bolivië)

23:00, 4 augustus 2016 (GMT)

NWNNE
WE
SWSSE
Home            
Ascencion De Guarayos San Javier Concepcion Viru-Viru Trinidad Santa Cruz / El Trompillo San Ignacio De Velasco San Ignacio De Moxos Magdalena Santa Ana San Jose De Chiquitos San Joaquin Cochabamba San Borja Sucre Robore Vilhena Aeroporto Camiri Reyes Oruro Rurrenabaque Potosi La Paz / Alto

Om een weerknop op uw website of weblog te plaatsen, copieer onderstaande code en plak die in uw pagina. In het eerste vakje staat HTML-code, in het tweede vakje UBB-code.


Add to Google

Details

Visibility: 4000 m, 4.0 km, 13123 ft, 2.5 miles
Het Weer:moderate smoke
Temperature:29°C, 84°F
Gefühlte Temperatur:30°C, 86°F
Dew-point:19°C, 66°F
Atmospheric pressure:1012 hPa, 759.1 mmHg, 29.88 inHg, 0.999 atm
Relative humidity:54.9 %
METAR:SLAS 042300Z 00000KT 4000 FU NSC 29/19 Q1012

Snelkoppelingen

Actuele weersinformatie van de hele wereld. Voeg locaties toe met het plus (+) symbool. Deze snelkoppelingen kunnen worden toegevoegd aan Google.

Lid van de Technetium groep

website free tracking
StatCounter NetStat W3C Validator

27-10-2020 05:22:24
astro.technetium.be money.technetium.be phote.technetium.be tafeltennistafel.technetium.be www.ligfiets.net